Time;durP1;ratioP1;P1;durP2;ratioP2;P2;SDS_P1;SDS_P2;PMS_P1;PMS_P2;Temp;Humidity;BMP_temperature;BMP_pressure;BME280_temperature;BME280_humidity;BME280_pressure;Samples;Min_cycle;Max_cycle;Signal;HPM_P1;HPM_P2
2024/01/09 00:00:50;;;;;;;;;;;1.80;99.90;;;;;;5016476;28;19930;-83
2024/01/09 00:03:15;;;;;;;;;;;1.80;99.90;;;;;;5017316;28;19925;-82
2024/01/09 00:05:41;;;;;;;;;;;1.90;99.90;;;;;;5039271;28;19970;-83
2024/01/09 00:08:06;;;;;;;;;;;1.90;99.90;;;;;;5042013;28;19912;-83
2024/01/09 00:10:32;;;;;;;;;;;1.80;99.90;;;;;;5036911;28;19930;-82
2024/01/09 00:12:58;;;;;;;;;;;1.90;99.90;;;;;;5023064;28;19937;-83
2024/01/09 00:15:24;;;;;;;;;;;1.90;99.90;;;;;;5020045;28;19945;-82
2024/01/09 00:17:50;;;;;;;;;;;2.00;99.90;;;;;;5011107;28;19920;-83
2024/01/09 00:20:16;;;;;;;;;;;1.90;99.90;;;;;;5012225;28;19965;-82
2024/01/09 00:22:42;;;;;;;;;;;1.90;99.90;;;;;;5013762;28;19966;-82
2024/01/09 00:25:08;;;;;;;;;;;1.90;99.90;;;;;;5014606;28;19975;-83
2024/01/09 00:27:33;;;;;;;;;;;1.80;99.90;;;;;;5011700;28;19987;-82
2024/01/09 00:29:59;;;;;;;;;;;1.90;99.90;;;;;;5017938;28;20377;-83
2024/01/09 00:32:26;;;;;;;;;;;1.80;99.90;;;;;;5018452;28;20086;-82
2024/01/09 00:34:51;;;;;;;;;;;1.80;99.90;;;;;;5017613;28;19940;-83
2024/01/09 00:37:17;;;;;;;;;;;1.80;99.90;;;;;;5015458;28;20316;-83
2024/01/09 00:39:42;;;;;;;;;;;1.80;99.90;;;;;;5019957;28;20438;-83
2024/01/09 00:42:08;;;;;;;;;;;1.80;99.90;;;;;;5016850;28;19916;-84
2024/01/09 00:44:33;;;;;;;;;;;1.80;99.90;;;;;;5018967;28;20038;-83
2024/01/09 00:46:59;;;;;;;;;;;1.80;99.90;;;;;;5017564;28;19943;-83
2024/01/09 00:49:24;;;;;;;;;;;1.70;99.90;;;;;;5017658;28;20342;-83
2024/01/09 00:51:50;;;;;;;;;;;1.80;99.90;;;;;;5014504;28;20114;-83
2024/01/09 00:54:17;;;;;;;;;;;1.80;99.90;;;;;;4992461;28;19946;-82
2024/01/09 00:56:42;;;;;;;;;;;1.80;99.90;;;;;;5017294;28;19917;-83
2024/01/09 00:59:08;;;;;;;;;;;1.70;99.90;;;;;;5021525;28;19939;-82
2024/01/09 01:01:33;;;;;;;;;;;1.70;99.90;;;;;;5020422;28;19948;-82
2024/01/09 01:03:59;;;;;;;;;;;1.60;99.90;;;;;;5017716;28;19944;-83
2024/01/09 01:06:24;;;;;;;;;;;1.70;99.90;;;;;;5016034;28;20350;-82
2024/01/09 01:08:50;;;;;;;;;;;1.60;99.90;;;;;;5014006;28;19971;-83
2024/01/09 01:11:15;;;;;;;;;;;1.60;99.90;;;;;;5014548;28;19916;-83
2024/01/09 01:13:41;;;;;;;;;;;1.70;99.90;;;;;;5015971;28;19929;-83
2024/01/09 01:16:06;;;;;;;;;;;1.70;99.90;;;;;;5015626;28;19910;-83
2024/01/09 01:18:32;;;;;;;;;;;1.70;99.90;;;;;;5017715;28;20374;-82
2024/01/09 01:20:58;;;;;;;;;;;1.60;99.90;;;;;;5013888;28;19938;-82
2024/01/09 01:23:23;;;;;;;;;;;1.60;99.90;;;;;;5015326;28;20268;-82
2024/01/09 01:25:49;;;;;;;;;;;1.70;99.90;;;;;;5018352;28;19936;-82
2024/01/09 01:28:14;;;;;;;;;;;1.80;99.90;;;;;;5016120;28;19913;-81
2024/01/09 01:30:40;;;;;;;;;;;1.80;99.90;;;;;;5016707;28;19964;-81
2024/01/09 01:33:05;;;;;;;;;;;1.70;99.90;;;;;;5014471;28;19933;-82
2024/01/09 01:35:31;;;;;;;;;;;1.80;99.90;;;;;;5016789;28;19944;-82
2024/01/09 01:37:56;;;;;;;;;;;1.80;99.90;;;;;;5012332;28;19919;-81
2024/01/09 01:40:22;;;;;;;;;;;1.70;99.90;;;;;;5015326;28;20229;-82
2024/01/09 01:42:47;;;;;;;;;;;1.70;99.90;;;;;;5019420;28;19925;-82
2024/01/09 01:45:15;;;;;;;;;;;1.70;99.90;;;;;;5019934;28;19927;-82
2024/01/09 01:47:42;;;;;;;;;;;1.70;99.90;;;;;;5016706;28;20017;-82
2024/01/09 01:50:08;;;;;;;;;;;1.70;99.90;;;;;;5014278;28;20395;-82
2024/01/09 01:52:33;;;;;;;;;;;1.70;99.90;;;;;;5016854;28;19917;-81
2024/01/09 01:54:59;;;;;;;;;;;1.70;99.90;;;;;;5015628;28;19932;-81
2024/01/09 01:57:24;;;;;;;;;;;1.60;99.90;;;;;;5016308;28;19912;-82
2024/01/09 01:59:50;;;;;;;;;;;1.70;99.90;;;;;;5015352;28;19953;-82
2024/01/09 02:02:16;;;;;;;;;;;1.70;99.90;;;;;;5018624;28;20026;-81
2024/01/09 02:04:43;;;;;;;;;;;1.80;99.90;;;;;;5028304;28;19965;-83
2024/01/09 02:07:09;;;;;;;;;;;1.70;99.90;;;;;;5035074;28;19938;-84
2024/01/09 02:09:36;;;;;;;;;;;1.60;99.90;;;;;;5040350;28;19987;-84
2024/01/09 02:12:02;;;;;;;;;;;1.60;99.90;;;;;;5038439;28;19950;-83
2024/01/09 02:14:27;;;;;;;;;;;1.60;99.90;;;;;;5036331;28;20387;-83
2024/01/09 02:16:53;;;;;;;;;;;1.60;99.90;;;;;;5018395;28;19909;-83
2024/01/09 02:19:18;;;;;;;;;;;1.70;99.90;;;;;;5016695;28;19952;-83
2024/01/09 02:21:44;;;;;;;;;;;1.60;99.90;;;;;;5017151;28;19919;-83
2024/01/09 02:24:09;;;;;;;;;;;1.60;99.90;;;;;;5017848;28;19979;-83
2024/01/09 02:26:40;;;;;;;;;;;1.60;99.90;;;;;;5018233;28;20401;-82
2024/01/09 02:29:08;;;;;;;;;;;1.60;99.90;;;;;;5016653;28;19930;-83
2024/01/09 02:31:34;;;;;;;;;;;1.50;99.90;;;;;;5019255;28;19938;-83
2024/01/09 02:34:00;;;;;;;;;;;1.50;99.90;;;;;;5012012;28;19942;-83
2024/01/09 02:36:25;;;;;;;;;;;1.40;99.90;;;;;;5012272;28;19933;-83
2024/01/09 02:38:51;;;;;;;;;;;1.30;99.90;;;;;;5012780;28;19948;-83
2024/01/09 02:41:16;;;;;;;;;;;1.20;99.90;;;;;;5012606;28;19982;-83
2024/01/09 02:43:42;;;;;;;;;;;1.20;99.90;;;;;;5009388;28;19958;-82
2024/01/09 02:46:07;;;;;;;;;;;1.10;99.90;;;;;;5011093;28;20468;-83
2024/01/09 02:48:33;;;;;;;;;;;1.00;99.90;;;;;;5015082;28;19948;-83
2024/01/09 02:50:59;;;;;;;;;;;1.10;99.90;;;;;;5014915;28;19956;-83
2024/01/09 02:53:24;;;;;;;;;;;1.00;99.90;;;;;;5010646;28;19954;-83
2024/01/09 02:55:50;;;;;;;;;;;1.00;99.90;;;;;;5012804;28;19953;-83
2024/01/09 02:58:16;;;;;;;;;;;0.90;99.90;;;;;;5015495;28;19985;-81
2024/01/09 03:00:41;;;;;;;;;;;1.00;99.90;;;;;;5009515;28;20025;-81
2024/01/09 03:03:07;;;;;;;;;;;1.00;99.90;;;;;;5012304;28;19932;-83
2024/01/09 03:05:32;;;;;;;;;;;0.90;99.90;;;;;;5013354;28;19946;-83
2024/01/09 03:07:58;;;;;;;;;;;0.90;99.90;;;;;;5011140;28;20377;-83
2024/01/09 03:10:23;;;;;;;;;;;0.90;99.90;;;;;;5013841;28;19934;-83
2024/01/09 03:12:49;;;;;;;;;;;1.00;99.90;;;;;;5014661;28;19938;-83
2024/01/09 03:15:14;;;;;;;;;;;0.90;99.90;;;;;;5012877;28;20039;-83
2024/01/09 03:17:40;;;;;;;;;;;0.90;99.90;;;;;;5014088;28;19948;-83
2024/01/09 03:20:06;;;;;;;;;;;0.90;99.90;;;;;;5010902;28;20046;-83
2024/01/09 03:22:31;;;;;;;;;;;0.80;99.90;;;;;;5012536;28;19930;-83
2024/01/09 03:24:57;;;;;;;;;;;0.90;99.90;;;;;;5011282;28;19927;-83
2024/01/09 03:27:22;;;;;;;;;;;0.90;99.90;;;;;;5012184;28;19974;-83
2024/01/09 03:29:48;;;;;;;;;;;0.80;99.90;;;;;;5014370;28;19959;-81
2024/01/09 03:32:13;;;;;;;;;;;0.90;99.90;;;;;;5010576;28;20138;-83
2024/01/09 03:34:40;;;;;;;;;;;0.90;99.90;;;;;;5012186;28;20323;-83
2024/01/09 03:37:07;;;;;;;;;;;0.80;99.90;;;;;;5008418;28;19949;-83
2024/01/09 03:39:33;;;;;;;;;;;0.80;99.90;;;;;;5012096;28;20382;-83
2024/01/09 03:41:58;;;;;;;;;;;0.80;99.90;;;;;;5011643;28;20420;-83
2024/01/09 03:44:24;;;;;;;;;;;0.80;99.90;;;;;;5011727;28;20308;-83
2024/01/09 03:46:49;;;;;;;;;;;0.80;99.90;;;;;;5009172;28;21570;-83
2024/01/09 03:49:15;;;;;;;;;;;0.80;99.90;;;;;;5014650;28;19986;-82
2024/01/09 03:51:40;;;;;;;;;;;0.90;99.90;;;;;;5004604;28;19998;-82
2024/01/09 03:54:06;;;;;;;;;;;0.90;99.90;;;;;;5001342;28;19937;-83
2024/01/09 03:56:31;;;;;;;;;;;0.90;99.90;;;;;;5004114;28;19953;-82
2024/01/09 03:58:57;;;;;;;;;;;0.90;99.90;;;;;;5004009;28;19954;-82
2024/01/09 04:01:22;;;;;;;;;;;0.90;99.90;;;;;;4999444;28;19924;-83
2024/01/09 04:03:48;;;;;;;;;;;0.70;99.90;;;;;;5005463;28;20004;-82
2024/01/09 04:06:23;;;;;;;;;;;0.70;99.90;;;;;;5013668;28;19942;-82
2024/01/09 04:08:48;;;;;;;;;;;0.70;99.90;;;;;;5007353;28;19921;-82
2024/01/09 04:11:14;;;;;;;;;;;0.70;99.90;;;;;;5010521;28;19949;-83
2024/01/09 04:13:40;;;;;;;;;;;0.70;99.90;;;;;;5018096;28;20026;-83
2024/01/09 04:16:08;;;;;;;;;;;0.70;99.90;;;;;;5036160;28;19935;-83
2024/01/09 04:18:34;;;;;;;;;;;0.80;99.90;;;;;;5034705;28;19941;-82
2024/01/09 04:20:59;;;;;;;;;;;0.80;99.90;;;;;;5030974;28;19924;-82
2024/01/09 04:23:25;;;;;;;;;;;0.80;99.90;;;;;;5015465;28;19925;-83
2024/01/09 04:25:50;;;;;;;;;;;0.90;99.90;;;;;;5007775;28;19949;-83
2024/01/09 04:28:16;;;;;;;;;;;1.00;99.90;;;;;;5008305;28;20002;-82
2024/01/09 04:30:41;;;;;;;;;;;1.00;99.90;;;;;;5007724;28;19924;-82
2024/01/09 04:33:07;;;;;;;;;;;1.00;99.90;;;;;;5009815;28;20010;-82
2024/01/09 04:35:32;;;;;;;;;;;1.00;99.90;;;;;;5009646;28;20015;-82
2024/01/09 04:37:58;;;;;;;;;;;1.20;99.90;;;;;;5007033;28;19970;-82
2024/01/09 04:40:24;;;;;;;;;;;1.20;99.90;;;;;;5006349;28;19969;-83
2024/01/09 04:42:50;;;;;;;;;;;1.20;99.90;;;;;;5002582;28;19909;-82
2024/01/09 04:45:16;;;;;;;;;;;1.20;99.90;;;;;;5002659;28;19932;-82
2024/01/09 04:47:41;;;;;;;;;;;1.30;99.90;;;;;;5009457;28;19925;-83
2024/01/09 04:50:07;;;;;;;;;;;1.30;99.90;;;;;;5007259;28;19926;-82
2024/01/09 04:52:34;;;;;;;;;;;1.30;99.90;;;;;;5018578;28;19951;-82
2024/01/09 04:55:00;;;;;;;;;;;1.30;99.90;;;;;;5016751;28;20370;-82
2024/01/09 04:57:25;;;;;;;;;;;1.30;99.90;;;;;;5018051;28;19941;-82
2024/01/09 04:59:51;;;;;;;;;;;1.30;99.90;;;;;;5022355;28;20002;-82
2024/01/09 05:02:16;;;;;;;;;;;1.40;99.90;;;;;;5017645;28;20395;-81
2024/01/09 05:04:42;;;;;;;;;;;1.40;99.90;;;;;;5019056;28;19929;-81
2024/01/09 05:07:07;;;;;;;;;;;1.50;99.90;;;;;;5015924;28;19951;-81
2024/01/09 05:09:33;;;;;;;;;;;1.40;99.90;;;;;;5016216;28;19934;-83
2024/01/09 05:11:58;;;;;;;;;;;1.50;99.90;;;;;;5023712;28;19930;-81
2024/01/09 05:14:24;;;;;;;;;;;1.40;99.90;;;;;;5024821;28;20462;-83
2024/01/09 05:16:49;;;;;;;;;;;1.40;99.90;;;;;;5014938;28;19944;-82
2024/01/09 05:19:15;;;;;;;;;;;1.50;99.90;;;;;;5016145;28;19952;-82
2024/01/09 05:21:40;;;;;;;;;;;1.50;99.90;;;;;;5012412;28;20030;-82
2024/01/09 05:24:06;;;;;;;;;;;1.50;99.90;;;;;;5016962;28;20287;-82
2024/01/09 05:26:31;;;;;;;;;;;1.40;99.90;;;;;;5014206;28;19976;-83
2024/01/09 05:28:57;;;;;;;;;;;1.50;99.90;;;;;;5012315;28;19989;-82
2024/01/09 05:31:23;;;;;;;;;;;1.60;99.90;;;;;;5012638;28;20388;-82
2024/01/09 05:33:48;;;;;;;;;;;1.60;99.90;;;;;;5014442;28;20389;-83
2024/01/09 05:36:18;;;;;;;;;;;1.60;99.90;;;;;;5011932;28;19935;-83
2024/01/09 05:38:44;;;;;;;;;;;1.70;99.90;;;;;;5017974;28;19987;-82
2024/01/09 05:41:17;;;;;;;;;;;1.60;99.90;;;;;;5015405;28;21380;-82
2024/01/09 05:43:43;;;;;;;;;;;1.70;99.90;;;;;;5020514;28;19923;-82
2024/01/09 05:46:08;;;;;;;;;;;1.70;99.90;;;;;;5022469;28;19942;-83
2024/01/09 05:48:34;;;;;;;;;;;1.70;99.90;;;;;;5015446;28;19921;-82
2024/01/09 05:50:59;;;;;;;;;;;1.80;99.90;;;;;;5022373;28;20269;-82
2024/01/09 05:53:25;;;;;;;;;;;1.80;99.90;;;;;;5018285;28;19930;-83
2024/01/09 05:55:51;;;;;;;;;;;1.70;99.90;;;;;;5023528;28;20369;-82
2024/01/09 05:58:16;;;;;;;;;;;1.70;99.90;;;;;;5017682;28;20128;-81
2024/01/09 06:00:42;;;;;;;;;;;1.70;99.90;;;;;;5014427;28;19925;-81
2024/01/09 06:03:08;;;;;;;;;;;1.70;99.90;;;;;;5039321;28;19928;-82
2024/01/09 06:05:33;;;;;;;;;;;1.70;99.90;;;;;;5039696;28;19961;-84
2024/01/09 06:07:59;;;;;;;;;;;1.70;99.90;;;;;;5040972;28;19940;-81
2024/01/09 06:10:24;;;;;;;;;;;1.70;99.90;;;;;;5044231;28;19928;-82
2024/01/09 06:12:50;;;;;;;;;;;1.80;99.90;;;;;;5033964;28;20119;-83
2024/01/09 06:15:15;;;;;;;;;;;1.80;99.90;;;;;;5035590;28;19924;-82
2024/01/09 06:17:41;;;;;;;;;;;1.80;99.90;;;;;;5030850;28;20273;-83
2024/01/09 06:20:06;;;;;;;;;;;1.80;99.90;;;;;;5024364;28;20355;-82
2024/01/09 06:22:32;;;;;;;;;;;1.80;99.90;;;;;;5034633;28;19917;-81
2024/01/09 06:24:58;;;;;;;;;;;1.70;99.90;;;;;;5038847;28;19923;-82
2024/01/09 06:27:23;;;;;;;;;;;1.70;99.90;;;;;;5039353;28;20495;-83
2024/01/09 06:29:49;;;;;;;;;;;1.70;99.90;;;;;;5035694;28;20319;-82
2024/01/09 06:32:14;;;;;;;;;;;1.60;99.90;;;;;;5020889;28;19923;-81
2024/01/09 06:34:39;;;;;;;;;;;1.60;99.90;;;;;;5017585;28;19913;-82
2024/01/09 06:37:05;;;;;;;;;;;1.50;99.90;;;;;;5017127;28;20415;-82
2024/01/09 06:39:30;;;;;;;;;;;1.50;99.90;;;;;;5014910;28;19970;-82
2024/01/09 06:41:56;;;;;;;;;;;1.30;99.90;;;;;;5012797;28;19941;-83
2024/01/09 06:44:22;;;;;;;;;;;1.30;99.90;;;;;;5017258;28;20153;-82
2024/01/09 06:46:47;;;;;;;;;;;1.30;99.90;;;;;;5014057;28;19925;-84
2024/01/09 06:49:13;;;;;;;;;;;1.30;99.90;;;;;;5014502;28;19932;-84
2024/01/09 06:51:38;;;;;;;;;;;1.20;99.90;;;;;;5018833;28;19973;-84
2024/01/09 06:54:04;;;;;;;;;;;1.20;99.90;;;;;;5016494;28;20000;-84
2024/01/09 06:56:29;;;;;;;;;;;1.20;99.90;;;;;;5015873;28;19936;-84
2024/01/09 06:58:55;;;;;;;;;;;1.10;99.90;;;;;;5014036;28;19962;-84
2024/01/09 07:01:21;;;;;;;;;;;1.10;99.90;;;;;;5015539;28;19983;-84
2024/01/09 07:03:46;;;;;;;;;;;1.10;99.90;;;;;;5016115;28;20315;-84
2024/01/09 07:06:12;;;;;;;;;;;1.10;99.90;;;;;;5015080;28;19949;-84
2024/01/09 07:08:37;;;;;;;;;;;1.10;99.90;;;;;;5017905;28;20372;-84
2024/01/09 07:11:03;;;;;;;;;;;1.10;99.90;;;;;;5014748;28;20050;-84
2024/01/09 07:13:29;;;;;;;;;;;1.00;99.90;;;;;;5016321;28;19925;-84
2024/01/09 07:15:54;;;;;;;;;;;1.10;99.90;;;;;;5008034;28;20081;-84
2024/01/09 07:18:20;;;;;;;;;;;1.00;99.90;;;;;;5014708;28;20036;-84
2024/01/09 07:20:46;;;;;;;;;;;1.00;99.90;;;;;;5013701;28;19940;-84
2024/01/09 07:23:11;;;;;;;;;;;1.00;99.90;;;;;;5014756;28;20172;-80
2024/01/09 07:25:37;;;;;;;;;;;1.00;99.90;;;;;;5014528;28;19982;-86
2024/01/09 07:28:02;;;;;;;;;;;1.00;99.90;;;;;;5015814;28;20025;-83
2024/01/09 07:30:28;;;;;;;;;;;1.00;99.90;;;;;;5016594;28;19948;-83
2024/01/09 07:32:53;;;;;;;;;;;1.00;99.90;;;;;;5013245;28;19989;-84
2024/01/09 07:35:19;;;;;;;;;;;1.10;99.90;;;;;;5013688;28;20288;-85
2024/01/09 07:37:44;;;;;;;;;;;1.10;99.90;;;;;;5013141;28;19965;-84
2024/01/09 07:40:10;;;;;;;;;;;1.10;99.90;;;;;;5013385;28;19997;-88
2024/01/09 07:42:36;;;;;;;;;;;1.10;99.90;;;;;;5010459;28;20021;-84
2024/01/09 07:45:02;;;;;;;;;;;1.00;99.90;;;;;;5007100;28;19963;-84
2024/01/09 07:47:28;;;;;;;;;;;0.90;99.90;;;;;;5013501;28;20020;-88
2024/01/09 07:49:54;;;;;;;;;;;0.90;99.90;;;;;;5016014;28;19968;-86
2024/01/09 07:52:19;;;;;;;;;;;0.90;99.90;;;;;;5016047;28;19954;-83
2024/01/09 07:54:45;;;;;;;;;;;0.90;99.90;;;;;;5009263;28;20032;-84
2024/01/09 07:57:11;;;;;;;;;;;0.90;99.90;;;;;;5014659;28;19944;-85
2024/01/09 07:59:36;;;;;;;;;;;0.90;99.90;;;;;;5010453;28;20392;-88
2024/01/09 08:02:02;;;;;;;;;;;0.90;99.90;;;;;;4999973;28;19978;-83
2024/01/09 08:04:28;;;;;;;;;;;0.90;99.90;;;;;;4996153;28;19968;-84
2024/01/09 08:06:54;;;;;;;;;;;0.80;99.90;;;;;;4996603;28;19995;-82
2024/01/09 08:09:19;;;;;;;;;;;0.80;99.90;;;;;;5001871;28;19932;-82
2024/01/09 08:11:45;;;;;;;;;;;0.70;99.90;;;;;;5005593;28;20707;-83
2024/01/09 08:14:11;;;;;;;;;;;0.80;99.90;;;;;;4995210;28;19919;-84
2024/01/09 08:16:37;;;;;;;;;;;0.80;99.90;;;;;;4996684;28;20277;-85
2024/01/09 08:19:04;;;;;;;;;;;0.80;99.90;;;;;;5004935;28;19954;-87
2024/01/09 08:21:31;;;;;;;;;;;0.70;99.90;;;;;;5007799;28;20009;-86
2024/01/09 08:23:57;;;;;;;;;;;0.80;99.90;;;;;;5014952;28;19938;-85
2024/01/09 08:26:22;;;;;;;;;;;0.80;99.90;;;;;;4995712;28;19942;-85
2024/01/09 08:28:48;;;;;;;;;;;0.80;99.90;;;;;;5009336;28;20016;-84
2024/01/09 08:31:13;;;;;;;;;;;0.80;99.90;;;;;;5008449;28;19923;-85
2024/01/09 08:33:39;;;;;;;;;;;0.80;99.90;;;;;;5014695;28;19925;-85
2024/01/09 08:36:05;;;;;;;;;;;0.80;99.90;;;;;;5018764;28;19983;-85
2024/01/09 08:38:30;;;;;;;;;;;0.80;99.90;;;;;;5021600;28;19999;-86
2024/01/09 08:40:56;;;;;;;;;;;0.90;99.90;;;;;;5001796;28;20358;-86
2024/01/09 08:43:22;;;;;;;;;;;1.00;99.90;;;;;;5002500;28;19942;-85
2024/01/09 08:45:49;;;;;;;;;;;1.00;99.90;;;;;;4987747;28;20440;-84
2024/01/09 08:48:15;;;;;;;;;;;1.20;99.90;;;;;;4997387;28;19917;-87
2024/01/09 08:50:40;;;;;;;;;;;1.30;99.90;;;;;;4995542;28;19917;-88
2024/01/09 08:53:06;;;;;;;;;;;1.50;99.90;;;;;;5005222;28;20492;-87
2024/01/09 08:55:31;;;;;;;;;;;1.50;99.90;;;;;;5004765;28;20732;-85
2024/01/09 08:57:57;;;;;;;;;;;1.70;99.90;;;;;;5003107;28;20250;-86
2024/01/09 09:00:23;;;;;;;;;;;1.90;99.90;;;;;;5005104;28;20509;-84
2024/01/09 09:02:49;;;;;;;;;;;2.00;99.90;;;;;;4996568;28;19923;-84
2024/01/09 09:05:14;;;;;;;;;;;2.00;99.90;;;;;;5013802;28;19923;-85
2024/01/09 09:07:40;;;;;;;;;;;2.10;99.90;;;;;;5007235;28;19927;-88
2024/01/09 09:10:06;;;;;;;;;;;2.20;99.90;;;;;;4999841;28;19922;-83
2024/01/09 09:12:32;;;;;;;;;;;2.30;99.90;;;;;;5003662;28;19955;-87
2024/01/09 09:14:58;;;;;;;;;;;2.30;99.90;;;;;;4996507;28;19928;-87
2024/01/09 09:17:23;;;;;;;;;;;2.40;99.90;;;;;;4992592;28;19934;-83
2024/01/09 09:19:49;;;;;;;;;;;2.50;99.90;;;;;;5002824;28;19960;-86
2024/01/09 09:22:14;;;;;;;;;;;2.50;99.90;;;;;;4999369;28;19913;-85
2024/01/09 09:24:42;;;;;;;;;;;2.60;99.90;;;;;;5003070;28;19969;-84
2024/01/09 09:27:07;;;;;;;;;;;2.70;99.90;;;;;;4986186;28;19947;-84
2024/01/09 09:29:33;;;;;;;;;;;2.90;99.90;;;;;;4994038;28;19935;-84
2024/01/09 09:31:58;;;;;;;;;;;4.00;99.90;;;;;;4986834;28;19924;-85
2024/01/09 09:34:24;;;;;;;;;;;5.50;99.90;;;;;;4976309;28;19995;-84
2024/01/09 09:36:50;;;;;;;;;;;7.10;99.90;;;;;;4988867;28;21108;-86
2024/01/09 09:39:15;;;;;;;;;;;8.00;91.70;;;;;;4996618;28;19962;-83
2024/01/09 09:41:44;;;;;;;;;;;8.90;80.40;;;;;;4996917;28;19928;-83
2024/01/09 09:44:13;;;;;;;;;;;9.60;66.80;;;;;;4991562;28;19937;-83
2024/01/09 09:46:40;;;;;;;;;;;9.10;67.10;;;;;;4996837;28;19949;-84
2024/01/09 09:49:05;;;;;;;;;;;8.90;66.40;;;;;;4995539;28;20068;-83
2024/01/09 09:51:31;;;;;;;;;;;9.10;68.90;;;;;;4996004;28;19957;-83
2024/01/09 09:53:57;;;;;;;;;;;9.20;68.70;;;;;;4994519;28;19976;-84
2024/01/09 09:56:24;;;;;;;;;;;8.90;66.60;;;;;;5000017;28;20555;-83
2024/01/09 09:58:49;;;;;;;;;;;8.40;68.70;;;;;;4997449;28;19958;-84
2024/01/09 10:01:17;;;;;;;;;;;8.00;76.10;;;;;;4998664;28;20476;-84
2024/01/09 10:03:49;;;;;;;;;;;8.40;76.40;;;;;;4996852;28;20538;-83
2024/01/09 10:06:14;;;;;;;;;;;9.60;70.10;;;;;;4994119;28;19951;-84
2024/01/09 10:08:41;;;;;;;;;;;11.00;59.90;;;;;;4994044;28;19927;-84
2024/01/09 10:11:06;;;;;;;;;;;12.50;53.60;;;;;;4997007;28;20053;-83
2024/01/09 10:13:32;;;;;;;;;;;12.40;50.80;;;;;;4995926;28;19934;-84
2024/01/09 10:15:58;;;;;;;;;;;13.30;48.80;;;;;;4994712;28;20305;-84
2024/01/09 10:18:28;;;;;;;;;;;13.60;48.30;;;;;;4997729;28;19952;-84
2024/01/09 10:20:54;;;;;;;;;;;14.10;46.00;;;;;;4993546;28;19973;-84
2024/01/09 10:23:20;;;;;;;;;;;14.40;45.50;;;;;;4989584;28;19910;-83
2024/01/09 10:25:46;;;;;;;;;;;14.00;44.50;;;;;;4994713;28;19943;-83
2024/01/09 10:28:18;;;;;;;;;;;13.90;46.80;;;;;;4995311;28;20150;-84
2024/01/09 10:36:56;;;;;;;;;;;14.70;44.80;;;;;;4915671;29;20193;-82
2024/01/09 10:39:05;;;;;;;;;;;14.50;45.40;;;;;;4961841;28;19929;-83
2024/01/09 10:40:04;;;;;;;;;;;15.50;42.30;;;;;;4923065;28;20318;-82
2024/01/09 10:46:31;;;;;;;;;;;;;;;;;;;;;
2024/01/09 10:50:12;;;;;;;;;;;16.50;38.60;;;;;;4942946;28;20451;-81
2024/01/09 10:51:58;;;;;;;;;;;15.70;40.40;;;;;;4948133;28;19949;-81
2024/01/09 10:54:25;;;;;;;;;;;15.40;41.00;;;;;;4980425;28;19930;-82
2024/01/09 10:56:52;;;;;;;;;;;16.10;40.30;;;;;;4994219;28;20260;-80
2024/01/09 10:59:18;;;;;;;;;;;17.10;39.00;;;;;;4995377;28;19971;-80
2024/01/09 11:01:43;;;;;;;;;;;16.00;38.30;;;;;;4988582;28;20016;-81
2024/01/09 11:04:09;;;;;;;;;;;14.50;43.40;;;;;;4977432;28;19921;-82
2024/01/09 11:06:36;;;;;;;;;;;14.50;44.10;;;;;;4992814;28;19948;-84
2024/01/09 11:09:05;;;;;;;;;;;14.20;44.50;;;;;;4995000;28;20028;-84
2024/01/09 11:11:36;;;;;;;;;;;14.80;43.70;;;;;;4995774;28;20263;-84
2024/01/09 11:14:06;;;;;;;;;;;16.40;41.80;;;;;;4995938;28;20231;-85
2024/01/09 11:16:36;;;;;;;;;;;15.70;40.00;;;;;;4997841;28;19950;-85
2024/01/09 11:19:03;;;;;;;;;;;16.20;39.10;;;;;;4999388;28;19989;-84
2024/01/09 11:21:30;;;;;;;;;;;15.80;38.90;;;;;;4998921;28;19935;-85
2024/01/09 11:23:57;;;;;;;;;;;16.90;39.30;;;;;;4995026;28;20036;-85
2024/01/09 11:26:27;;;;;;;;;;;16.10;39.20;;;;;;4986822;28;19945;-85
2024/01/09 11:28:53;;;;;;;;;;;16.80;38.40;;;;;;4991052;28;20352;-84
2024/01/09 11:31:20;;;;;;;;;;;16.80;38.20;;;;;;4987032;28;20027;-84
2024/01/09 11:33:47;;;;;;;;;;;16.50;39.40;;;;;;4995918;28;19980;-82
2024/01/09 11:36:20;;;;;;;;;;;16.10;40.60;;;;;;5001309;28;19952;-82
2024/01/09 11:38:52;;;;;;;;;;;16.80;38.40;;;;;;5001649;28;20188;-84
2024/01/09 11:41:18;;;;;;;;;;;17.50;37.40;;;;;;4991807;28;20417;-85
2024/01/09 11:44:00;;;;;;;;;;;18.00;36.80;;;;;;4997811;28;20030;-84
2024/01/09 11:46:26;;;;;;;;;;;18.30;35.00;;;;;;4998462;28;19941;-84
2024/01/09 11:48:52;;;;;;;;;;;18.20;35.30;;;;;;5006137;28;19951;-84
2024/01/09 11:51:18;;;;;;;;;;;17.90;34.60;;;;;;4998836;28;19987;-84
2024/01/09 11:53:43;;;;;;;;;;;17.40;35.50;;;;;;4997587;28;19934;-84
2024/01/09 11:56:12;;;;;;;;;;;17.00;37.10;;;;;;5000057;28;19939;-84
2024/01/09 11:58:38;;;;;;;;;;;16.90;36.20;;;;;;5000880;28;19925;-86
2024/01/09 12:01:04;;;;;;;;;;;17.10;36.50;;;;;;4994211;28;19945;-86
2024/01/09 12:03:29;;;;;;;;;;;18.00;36.20;;;;;;5001665;28;19923;-85
2024/01/09 12:06:11;;;;;;;;;;;17.40;35.90;;;;;;5018161;28;19950;-89
2024/01/09 12:08:45;;;;;;;;;;;17.70;35.10;;;;;;5007035;28;20190;-90
2024/01/09 12:11:11;;;;;;;;;;;17.90;34.80;;;;;;4999711;28;19933;-88
2024/01/09 12:13:37;;;;;;;;;;;18.80;34.50;;;;;;5006206;28;20452;-84
2024/01/09 12:16:35;;;;;;;;;;;19.60;33.30;;;;;;5000055;28;19932;-88
2024/01/09 12:19:03;;;;;;;;;;;19.10;31.80;;;;;;5000254;28;19954;-90
2024/01/09 12:21:30;;;;;;;;;;;19.60;33.70;;;;;;5004771;28;19909;-86
2024/01/09 12:23:59;;;;;;;;;;;19.80;32.80;;;;;;5003247;28;20383;-87
2024/01/09 12:26:26;;;;;;;;;;;18.90;33.60;;;;;;5001700;28;20040;-88
2024/01/09 12:28:52;;;;;;;;;;;19.10;32.80;;;;;;5020926;28;19956;-88
2024/01/09 12:31:18;;;;;;;;;;;19.40;33.30;;;;;;5031304;28;20019;-86
2024/01/09 12:33:44;;;;;;;;;;;19.90;33.00;;;;;;5029101;28;20271;-88
2024/01/09 12:53:54;;;;;;;;;;;19.70;32.60;;;;;;5626827;22;20045;-81
2024/01/09 12:56:58;;;;;;;;;;;19.00;33.00;;;;;;5021946;28;19936;-90
2024/01/09 12:59:26;;;;;;;;;;;19.50;33.40;;;;;;4980664;28;19974;-87
2024/01/09 13:01:53;;;;;;;;;;;18.70;33.90;;;;;;5020712;28;20300;-89
2024/01/09 13:04:19;;;;;;;;;;;18.80;33.50;;;;;;5026235;28;19951;-86
2024/01/09 13:06:47;;;;;;;;;;;18.80;33.60;;;;;;5025860;28;20396;-89
2024/01/09 13:09:13;;;;;;;;;;;19.30;32.50;;;;;;5018261;28;20012;-86
2024/01/09 13:11:39;;;;;;;;;;;19.50;34.00;;;;;;5016894;28;19931;-85
2024/01/09 13:14:05;;;;;;;;;;;19.80;31.50;;;;;;5018696;28;20350;-86
2024/01/09 13:16:30;;;;;;;;;;;19.70;31.70;;;;;;5018314;28;19939;-87
2024/01/09 13:18:56;;;;;;;;;;;20.10;31.70;;;;;;5022433;28;19954;-87
2024/01/09 13:21:22;;;;;;;;;;;19.60;30.60;;;;;;5025932;28;19943;-88
2024/01/09 13:23:47;;;;;;;;;;;18.80;34.70;;;;;;5015428;28;21779;-92
2024/01/09 13:26:14;;;;;;;;;;;18.40;34.00;;;;;;5020786;28;20144;-83
2024/01/09 13:28:40;;;;;;;;;;;18.20;32.90;;;;;;5021573;28;19941;-84
2024/01/09 13:31:10;;;;;;;;;;;18.50;34.70;;;;;;5017411;28;19938;-83
2024/01/09 13:33:36;;;;;;;;;;;18.90;34.10;;;;;;5017260;28;19988;-81
2024/01/09 13:36:02;;;;;;;;;;;20.50;31.60;;;;;;5013828;28;19972;-83
2024/01/09 13:38:28;;;;;;;;;;;20.90;32.70;;;;;;5007173;28;19992;-85
2024/01/09 13:40:53;;;;;;;;;;;22.10;29.40;;;;;;5016260;28;20702;-83
2024/01/09 13:43:22;;;;;;;;;;;22.20;29.80;;;;;;5013570;28;19938;-91
2024/01/09 13:45:50;;;;;;;;;;;22.10;30.30;;;;;;5014600;28;19957;-83
2024/01/09 13:48:16;;;;;;;;;;;22.50;30.30;;;;;;5014507;28;20020;-84
2024/01/09 13:50:42;;;;;;;;;;;22.60;29.10;;;;;;5023728;28;20061;-87
2024/01/09 13:53:07;;;;;;;;;;;23.00;30.80;;;;;;5021364;28;19938;-85
2024/01/09 13:55:33;;;;;;;;;;;23.50;29.00;;;;;;5033337;28;19971;-86
2024/01/09 13:57:59;;;;;;;;;;;23.50;28.30;;;;;;5043325;28;19929;-89
2024/01/09 14:00:24;;;;;;;;;;;23.20;29.30;;;;;;5041430;28;20005;-88
2024/01/09 14:02:50;;;;;;;;;;;22.50;30.00;;;;;;5019766;28;19939;-91
2024/01/09 14:05:16;;;;;;;;;;;22.10;30.20;;;;;;5010235;28;19925;-85
2024/01/09 14:07:42;;;;;;;;;;;22.20;29.90;;;;;;5011422;28;19934;-84
2024/01/09 14:10:09;;;;;;;;;;;22.00;29.90;;;;;;5014375;28;19928;-82
2024/01/09 14:12:35;;;;;;;;;;;22.00;31.80;;;;;;5013850;28;20330;-82
2024/01/09 14:15:03;;;;;;;;;;;21.60;29.90;;;;;;5015650;28;19934;-83
2024/01/09 14:17:28;;;;;;;;;;;20.70;31.20;;;;;;5017536;28;19983;-84
2024/01/09 14:19:54;;;;;;;;;;;20.50;31.60;;;;;;5016088;28;20222;-85
2024/01/09 14:22:21;;;;;;;;;;;20.60;31.80;;;;;;5022884;28;20446;-84
2024/01/09 14:24:48;;;;;;;;;;;20.70;31.50;;;;;;5025506;28;19939;-86
2024/01/09 14:27:15;;;;;;;;;;;20.20;33.90;;;;;;5030804;28;19965;-87
2024/01/09 14:29:41;;;;;;;;;;;20.20;32.70;;;;;;5023681;28;19936;-89
2024/01/09 14:32:06;;;;;;;;;;;19.60;34.10;;;;;;5017889;28;19935;-87
2024/01/09 14:34:32;;;;;;;;;;;19.70;32.40;;;;;;5015785;28;20030;-83
2024/01/09 14:36:57;;;;;;;;;;;19.50;31.90;;;;;;5016736;28;20323;-91
2024/01/09 14:39:23;;;;;;;;;;;19.30;33.50;;;;;;5017521;28;20426;-86
2024/01/09 14:41:49;;;;;;;;;;;16.50;36.30;;;;;;5020027;28;20310;-85
2024/01/09 14:44:15;;;;;;;;;;;15.10;40.60;;;;;;5019717;28;19998;-90
2024/01/09 14:46:40;;;;;;;;;;;15.50;41.30;;;;;;5013378;28;20345;-87